Kilkeel, United Kingdom
Current Conditions -  °F | °C
As of 6:20 PM on Thursday 29 Jan 2015 (Local Time) from EGAC Reporting Station
Snow Showers Snow Showers  
Wind Chill: 26°   Ceiling: 1100
Heat Index: 34°   Visibility: 1.5mi
Dew Point: 32°   Wind: 10mph
Humidity: 93%   Direction: 240°WSW
Pressure: 28.85"   Gusts: NA
Location:  54.06°N, 6°W
Report Text: EGAC 291820Z 24009KT 2500 -SHSN FEW005 SCT008 BKN011 01/M00 Q0977
Loading
Personal Weather Stations






























Interactive Weather Map New forecast layout! Learn more

10-Day Weather Forecast

Advertisements
Track Severe Weather on mobile